Time;durP1;ratioP1;P1;durP2;ratioP2;P2;SDS_P1;SDS_P2;PMS_P1;PMS_P2;Temp;Humidity;BMP_temperature;BMP_pressure;BME280_temperature;BME280_humidity;BME280_pressure;Samples;Min_cycle;Max_cycle;Signal;HPM_P1;HPM_P2
2022/01/29 00:01:37;;;;;;;16.57;10.87;;;6.00;99.90;;;;;;6175415;23;20258;-82
2022/01/29 00:04:03;;;;;;;17.63;11.57;;;6.00;99.90;;;;;;6178476;23;20385;-81
2022/01/29 00:06:28;;;;;;;17.93;11.47;;;6.20;99.90;;;;;;6175779;23;20557;-81
2022/01/29 00:08:56;;;;;;;24.63;12.57;;;6.20;99.90;;;;;;6176465;23;20190;-80
2022/01/29 00:11:27;;;;;;;10.52;7.63;;;5.80;99.90;;;;;;6175658;23;20614;-80
2022/01/29 00:13:53;;;;;;;26.10;13.70;;;6.20;99.90;;;;;;6178055;23;20200;-80
2022/01/29 00:16:19;;;;;;;20.37;13.70;;;6.10;99.90;;;;;;6174884;23;20156;-80
2022/01/29 00:18:44;;;;;;;12.43;8.10;;;6.00;99.90;;;;;;6177516;23;20152;-80
2022/01/29 00:21:10;;;;;;;18.87;10.90;;;5.80;99.90;;;;;;6175886;23;20152;-80
2022/01/29 00:23:35;;;;;;;14.60;10.53;;;6.60;99.90;;;;;;6178243;23;20163;-81
2022/01/29 00:26:01;;;;;;;20.30;14.03;;;6.20;99.90;;;;;;6174637;23;20171;-81
2022/01/29 00:28:28;;;;;;;20.57;13.77;;;6.00;99.90;;;;;;6178283;23;20156;-81
2022/01/29 00:30:53;;;;;;;19.77;11.38;;;5.80;99.90;;;;;;6177536;23;21119;-81
2022/01/29 00:33:19;;;;;;;24.47;13.77;;;5.80;99.90;;;;;;6178598;23;20237;-81
2022/01/29 00:35:44;;;;;;;20.73;13.20;;;7.60;99.90;;;;;;6176069;23;20231;-83
2022/01/29 00:38:10;;;;;;;28.00;15.17;;;6.10;99.90;;;;;;6177889;23;20717;-81
2022/01/29 00:40:38;;;;;;;22.77;15.60;;;5.90;99.90;;;;;;6174165;23;20202;-82
2022/01/29 00:43:05;;;;;;;20.38;11.85;;;5.50;99.90;;;;;;6178268;23;20201;-82
2022/01/29 00:45:32;;;;;;;24.50;16.50;;;6.20;99.90;;;;;;6175474;23;20152;-82
2022/01/29 00:47:58;;;;;;;29.05;17.48;;;6.20;99.90;;;;;;6175999;23;20246;-82
2022/01/29 00:50:24;;;;;;;23.73;15.10;;;6.20;99.90;;;;;;6175381;23;20234;-82
2022/01/29 00:52:50;;;;;;;28.40;18.10;;;6.20;99.90;;;;;;6177833;23;20168;-82
2022/01/29 00:55:16;;;;;;;22.83;13.80;;;6.20;99.90;;;;;;6173999;23;20186;-83
2022/01/29 00:57:43;;;;;;;25.60;15.40;;;6.20;99.90;;;;;;6176931;23;20144;-81
2022/01/29 01:00:10;;;;;;;18.13;12.15;;;6.20;99.90;;;;;;6173932;23;20167;-81
2022/01/29 01:02:36;;;;;;;30.27;17.35;;;5.90;99.90;;;;;;6177276;23;20245;-82
2022/01/29 01:05:03;;;;;;;24.25;13.75;;;6.10;99.90;;;;;;6176082;23;20793;-83
2022/01/29 01:07:28;;;;;;;31.85;17.50;;;6.30;99.90;;;;;;6177748;23;20143;-83
2022/01/29 01:09:54;;;;;;;26.40;15.10;;;6.30;99.90;;;;;;6175364;23;20156;-83
2022/01/29 01:12:19;;;;;;;30.07;17.93;;;6.40;99.90;;;;;;6177670;23;20168;-83
2022/01/29 01:14:45;;;;;;;26.87;16.43;;;6.30;99.90;;;;;;6175356;23;20318;-82
2022/01/29 01:17:11;;;;;;;30.80;18.80;;;8.00;99.90;;;;;;6177600;23;20168;-83
2022/01/29 01:19:36;;;;;;;31.60;18.07;;;6.40;99.90;;;;;;6177680;23;20243;-83
2022/01/29 01:22:02;;;;;;;30.13;17.60;;;6.30;99.90;;;;;;6175847;23;20336;-82
2022/01/29 01:24:28;;;;;;;33.38;17.67;;;6.40;99.90;;;;;;6181671;23;20187;-82
2022/01/29 01:26:54;;;;;;;24.60;16.00;;;6.40;99.90;;;;;;6181050;23;20152;-83
2022/01/29 01:29:19;;;;;;;29.83;17.63;;;6.20;99.90;;;;;;6178232;23;20675;-82
2022/01/29 01:31:46;;;;;;;25.43;15.40;;;5.90;99.90;;;;;;6175240;23;20220;-83
2022/01/29 01:34:13;;;;;;;32.03;18.17;;;6.30;99.90;;;;;;6178440;23;20183;-83
2022/01/29 01:36:48;;;;;;;34.85;19.13;;;6.40;99.90;;;;;;6176157;23;20488;-83
2022/01/29 01:39:17;;;;;;;16.38;13.13;;;7.30;99.90;;;;;;6178330;23;20162;-82
2022/01/29 01:41:53;;;;;;;26.63;15.18;;;6.40;99.90;;;;;;6174624;23;20530;-82
2022/01/29 01:44:19;;;;;;;31.40;16.52;;;6.30;99.90;;;;;;6178478;23;20138;-82
2022/01/29 01:46:45;;;;;;;35.83;19.77;;;6.60;99.90;;;;;;6175853;23;20153;-83
2022/01/29 01:49:10;;;;;;;26.00;18.37;;;7.10;99.90;;;;;;6178025;23;20247;-83
2022/01/29 01:51:37;;;;;;;28.33;15.70;;;7.10;99.90;;;;;;6173935;23;20615;-82
2022/01/29 01:54:03;;;;;;;27.70;19.02;;;6.30;99.90;;;;;;6177683;23;21097;-82
2022/01/29 01:56:29;;;;;;;23.98;16.15;;;6.20;99.90;;;;;;6175635;23;20159;-83
2022/01/29 01:58:57;;;;;;;34.83;20.17;;;6.90;99.90;;;;;;6177009;23;20171;-82
2022/01/29 02:01:23;;;;;;;19.05;12.60;;;6.40;99.90;;;;;;6172732;23;20254;-82
2022/01/29 02:03:49;;;;;;;31.40;18.30;;;6.40;99.90;;;;;;6175816;23;20611;-82
2022/01/29 02:06:16;;;;;;;38.77;18.50;;;7.20;99.90;;;;;;6175163;23;20897;-82
2022/01/29 02:08:42;;;;;;;36.85;19.58;;;6.10;99.90;;;;;;6175054;23;20166;-82
2022/01/29 02:11:09;;;;;;;30.00;15.80;;;6.40;99.90;;;;;;6173168;23;20184;-82
2022/01/29 02:13:35;;;;;;;27.42;18.50;;;5.90;99.90;;;;;;6176886;23;20179;-82
2022/01/29 02:16:02;;;;;;;28.23;18.83;;;6.40;99.90;;;;;;6173717;23;20163;-83
2022/01/29 02:18:28;;;;;;;29.17;17.90;;;6.40;99.90;;;;;;6176324;23;20194;-83
2022/01/29 02:20:53;;;;;;;28.87;15.77;;;6.00;99.90;;;;;;6175203;23;20491;-83
2022/01/29 02:23:19;;;;;;;22.87;12.77;;;6.50;99.90;;;;;;6177464;23;20242;-83
2022/01/29 02:25:47;;;;;;;20.77;13.50;;;6.50;99.90;;;;;;6173099;23;20164;-82
2022/01/29 02:28:21;;;;;;;22.48;13.98;;;6.30;99.90;;;;;;6175727;23;20162;-82
2022/01/29 02:30:56;;;;;;;29.67;16.98;;;6.70;99.90;;;;;;6175002;23;20160;-83
2022/01/29 02:33:21;;;;;;;31.13;15.38;;;6.80;99.90;;;;;;6177283;23;20167;-82
2022/01/29 02:35:49;;;;;;;33.27;17.37;;;6.40;99.90;;;;;;6174904;23;20494;-82
2022/01/29 02:38:18;;;;;;;23.45;13.90;;;7.10;99.90;;;;;;6177095;23;20492;-81
2022/01/29 02:40:49;;;;;;;26.80;17.58;;;5.90;99.90;;;;;;6174682;23;20152;-81
2022/01/29 02:43:21;;;;;;;24.52;16.05;;;6.40;99.90;;;;;;6175586;23;20155;-83
2022/01/29 02:45:48;;;;;;;33.53;19.90;;;6.00;99.90;;;;;;6174928;23;20152;-81
2022/01/29 02:48:14;;;;;;;19.95;13.40;;;6.40;99.90;;;;;;6175215;23;20170;-81
2022/01/29 02:50:40;;;;;;;35.07;19.20;;;6.20;99.90;;;;;;6174247;23;20513;-81
2022/01/29 02:53:07;;;;;;;33.45;18.30;;;6.30;99.90;;;;;;6175235;23;20175;-81
2022/01/29 02:55:33;;;;;;;21.63;13.57;;;6.30;99.90;;;;;;6172909;23;20166;-81
2022/01/29 02:57:59;;;;;;;23.90;15.38;;;6.30;99.90;;;;;;6177361;23;20187;-81
2022/01/29 03:00:24;;;;;;;26.90;19.30;;;6.30;99.90;;;;;;6174188;23;20156;-82
2022/01/29 03:02:50;;;;;;;25.73;18.30;;;6.30;99.90;;;;;;6176503;23;20244;-81
2022/01/29 03:05:16;;;;;;;20.70;13.68;;;6.30;99.90;;;;;;6173144;23;20160;-83
2022/01/29 03:07:42;;;;;;;35.90;16.27;;;6.50;99.90;;;;;;6178475;23;20253;-84
2022/01/29 03:10:08;;;;;;;26.77;15.80;;;5.90;99.90;;;;;;6173100;23;20255;-84
2022/01/29 03:12:37;;;;;;;28.33;16.95;;;6.40;99.90;;;;;;6176520;23;20202;-83
2022/01/29 03:15:03;;;;;;;33.35;22.42;;;6.30;99.90;;;;;;6174500;23;20180;-83
2022/01/29 03:17:29;;;;;;;35.72;18.27;;;6.30;99.90;;;;;;6176411;23;20572;-83
2022/01/29 03:19:54;;;;;;;35.77;20.13;;;6.30;99.90;;;;;;6172547;23;20159;-83
2022/01/29 03:22:20;;;;;;;26.33;15.33;;;6.30;99.90;;;;;;6176772;23;20151;-84
2022/01/29 03:24:45;;;;;;;36.33;17.80;;;6.30;99.90;;;;;;6176388;23;20512;-83
2022/01/29 03:27:11;;;;;;;24.00;14.43;;;6.30;99.90;;;;;;6176737;23;20482;-84
2022/01/29 03:29:37;;;;;;;33.47;18.00;;;6.40;99.90;;;;;;6176346;23;20556;-84
2022/01/29 03:32:03;;;;;;;31.03;18.30;;;6.40;99.90;;;;;;6176669;23;20535;-82
2022/01/29 03:34:29;;;;;;;29.42;19.25;;;6.40;99.90;;;;;;6177850;23;20449;-82
2022/01/29 03:36:56;;;;;;;24.77;16.93;;;6.40;99.90;;;;;;6174704;23;20187;-82
2022/01/29 03:39:23;;;;;;;33.28;17.83;;;6.40;99.90;;;;;;6176493;23;20167;-82
2022/01/29 03:41:49;;;;;;;32.00;20.05;;;6.20;99.90;;;;;;6176552;23;20152;-82
2022/01/29 03:44:15;;;;;;;32.23;19.33;;;6.10;99.90;;;;;;6177013;23;20599;-82
2022/01/29 03:46:41;;;;;;;29.20;17.20;;;6.00;99.90;;;;;;6175670;23;20187;-82
2022/01/29 03:49:06;;;;;;;30.97;18.80;;;6.20;99.90;;;;;;6178200;23;20387;-82
2022/01/29 03:51:32;;;;;;;32.60;18.87;;;5.90;99.90;;;;;;6173923;23;20163;-82
2022/01/29 03:53:57;;;;;;;28.40;17.83;;;5.70;99.90;;;;;;6175819;23;20186;-82
2022/01/29 03:56:23;;;;;;;30.10;17.17;;;6.20;99.90;;;;;;6175285;23;20508;-82
2022/01/29 03:58:49;;;;;;;17.93;12.13;;;7.80;99.90;;;;;;6178356;23;20152;-82
2022/01/29 04:01:14;;;;;;;25.90;16.87;;;6.10;99.90;;;;;;6176153;23;20183;-82
2022/01/29 04:03:40;;;;;;;25.90;18.30;;;6.40;99.90;;;;;;6178071;23;20211;-82
2022/01/29 04:06:05;;;;;;;28.43;17.07;;;6.40;99.90;;;;;;6174470;23;20619;-81
2022/01/29 04:08:33;;;;;;;31.37;19.17;;;6.40;99.90;;;;;;6179269;23;20152;-81
2022/01/29 04:10:59;;;;;;;21.50;13.13;;;6.30;99.90;;;;;;6175529;23;20156;-81
2022/01/29 04:13:27;;;;;;;27.00;16.10;;;6.40;99.90;;;;;;6176247;23;20184;-82
2022/01/29 04:15:53;;;;;;;23.88;17.05;;;6.40;99.90;;;;;;6176778;23;20148;-81
2022/01/29 04:18:20;;;;;;;25.83;16.10;;;6.10;99.90;;;;;;6179935;23;20163;-81
2022/01/29 04:21:04;;;;;;;29.00;16.13;;;8.00;99.90;;;;;;6176562;23;20548;-82
2022/01/29 04:23:31;;;;;;;30.90;20.05;;;5.40;99.90;;;;;;6178097;23;20159;-81
2022/01/29 04:25:57;;;;;;;30.80;18.73;;;5.80;99.90;;;;;;6170515;23;20166;-82
2022/01/29 04:28:27;;;;;;;28.50;18.43;;;6.30;99.90;;;;;;6174059;23;20152;-82
2022/01/29 04:30:58;;;;;;;34.17;19.65;;;6.10;99.90;;;;;;6170331;23;20616;-82
2022/01/29 04:33:28;;;;;;;32.67;17.55;;;6.10;99.90;;;;;;6173860;23;20184;-82
2022/01/29 04:35:55;;;;;;;28.60;17.30;;;6.20;99.90;;;;;;6169757;23;20255;-81
2022/01/29 04:38:21;;;;;;;20.65;13.65;;;6.00;99.90;;;;;;6171469;23;20495;-81
2022/01/29 04:40:46;;;;;;;21.27;15.67;;;6.30;99.90;;;;;;6169865;23;20196;-81
2022/01/29 04:43:12;;;;;;;29.23;15.77;;;6.30;99.90;;;;;;6171497;23;20646;-81
2022/01/29 04:45:40;;;;;;;17.70;12.80;;;6.30;99.90;;;;;;6171320;23;20175;-81
2022/01/29 04:48:05;;;;;;;23.35;14.40;;;6.20;99.90;;;;;;6174154;23;20141;-81
2022/01/29 04:50:31;;;;;;;18.80;13.70;;;5.50;99.90;;;;;;6171306;23;20220;-82
2022/01/29 04:52:57;;;;;;;26.70;17.53;;;6.30;99.90;;;;;;6172756;23;20175;-83
2022/01/29 04:55:22;;;;;;;35.87;18.20;;;5.90;99.90;;;;;;6169539;23;20721;-81
2022/01/29 04:57:48;;;;;;;18.70;12.33;;;5.60;99.90;;;;;;6173879;23;20747;-81
2022/01/29 05:00:19;;;;;;;15.47;11.90;;;7.00;99.90;;;;;;6171570;23;20226;-80
2022/01/29 05:02:47;;;;;;;22.65;15.18;;;6.30;99.90;;;;;;6175068;23;20279;-80
2022/01/29 05:05:12;;;;;;;18.65;14.07;;;6.10;99.90;;;;;;6175224;23;20187;-81
2022/01/29 05:07:38;;;;;;;25.90;13.43;;;6.20;99.90;;;;;;6174537;23;20246;-80
2022/01/29 05:10:04;;;;;;;19.13;13.13;;;7.40;99.90;;;;;;6175836;23;20720;-80
2022/01/29 05:12:41;;;;;;;21.55;15.25;;;6.30;99.90;;;;;;6173599;23;20224;-80
2022/01/29 05:15:18;;;;;;;22.85;15.52;;;6.40;99.90;;;;;;6177441;23;20179;-81
2022/01/29 05:28:40;;;;;;;20.02;12.38;;;5.90;99.90;;;;;;6177477;23;20147;-81
2022/01/29 05:31:06;;;;;;;16.60;9.90;;;6.30;99.90;;;;;;6174673;23;20155;-80
2022/01/29 05:33:31;;;;;;;14.77;10.73;;;6.40;99.90;;;;;;6177048;23;20180;-81
2022/01/29 05:35:57;;;;;;;17.37;12.70;;;5.90;99.90;;;;;;6174859;23;20541;-81
2022/01/29 05:38:22;;;;;;;19.97;12.53;;;6.00;99.90;;;;;;6177228;23;20202;-81
2022/01/29 05:40:48;;;;;;;15.50;10.10;;;6.20;99.90;;;;;;6173557;23;20674;-81
2022/01/29 05:43:14;;;;;;;15.37;11.17;;;6.30;99.90;;;;;;6177580;23;20654;-82
2022/01/29 05:45:39;;;;;;;17.20;11.80;;;6.30;99.90;;;;;;6174511;23;20424;-81
2022/01/29 05:48:05;;;;;;;16.73;10.43;;;6.50;99.90;;;;;;6177190;23;20179;-81
2022/01/29 05:50:30;;;;;;;21.43;14.10;;;6.20;99.90;;;;;;6174272;23;20552;-81
2022/01/29 05:52:56;;;;;;;18.70;12.63;;;6.10;99.90;;;;;;6176116;23;20267;-81
2022/01/29 05:55:22;;;;;;;17.27;12.73;;;6.40;99.90;;;;;;6172906;23;20160;-81
2022/01/29 05:57:48;;;;;;;20.13;13.55;;;7.00;99.90;;;;;;6178202;23;20172;-81
2022/01/29 06:00:15;;;;;;;10.30;9.17;;;6.40;99.90;;;;;;6179402;23;20156;-82
2022/01/29 06:02:40;;;;;;;21.17;12.73;;;6.50;99.90;;;;;;6174869;23;20557;-80
2022/01/29 06:05:06;;;;;;;7.80;6.47;;;7.40;99.90;;;;;;6179227;23;20171;-81
2022/01/29 06:07:32;;;;;;;19.35;14.00;;;6.50;99.90;;;;;;6175772;23;20588;-81
2022/01/29 06:09:57;;;;;;;17.10;13.50;;;6.60;99.90;;;;;;6177007;23;20163;-81
2022/01/29 06:12:24;;;;;;;14.13;12.07;;;6.20;99.90;;;;;;6175317;23;20152;-81
2022/01/29 06:14:50;;;;;;;12.38;11.05;;;6.50;99.90;;;;;;6176542;23;20268;-81
2022/01/29 06:17:16;;;;;;;20.17;13.73;;;6.50;99.90;;;;;;6174740;23;20656;-81
2022/01/29 06:19:41;;;;;;;13.10;10.05;;;6.10;99.90;;;;;;6176496;23;20159;-82
2022/01/29 06:22:11;;;;;;;23.63;14.70;;;6.50;99.90;;;;;;6173067;23;20160;-81
2022/01/29 06:24:37;;;;;;;18.60;14.77;;;6.50;99.90;;;;;;6176541;23;20362;-77
2022/01/29 06:27:02;;;;;;;18.23;12.70;;;6.20;99.90;;;;;;6173476;23;20619;-81
2022/01/29 06:29:28;;;;;;;16.60;12.87;;;6.60;99.90;;;;;;6176183;23;20507;-82
2022/01/29 06:31:53;;;;;;;11.07;8.50;;;6.60;99.90;;;;;;6173133;23;20415;-81
2022/01/29 06:34:19;;;;;;;17.23;13.00;;;6.60;99.90;;;;;;6176362;23;20175;-82
2022/01/29 06:36:45;;;;;;;20.77;12.10;;;6.60;99.90;;;;;;6174179;23;20202;-81
2022/01/29 06:39:10;;;;;;;19.03;12.60;;;6.60;99.90;;;;;;6176504;23;20151;-83
2022/01/29 06:41:38;;;;;;;14.93;12.90;;;7.40;99.90;;;;;;6174493;23;20159;-82
2022/01/29 06:44:03;;;;;;;16.73;13.30;;;7.40;99.90;;;;;;6176736;23;20467;-81
2022/01/29 06:46:29;;;;;;;18.70;14.23;;;6.70;99.90;;;;;;6175859;23;20174;-82
2022/01/29 06:48:54;;;;;;;17.77;13.30;;;6.50;99.90;;;;;;6176058;23;20540;-82
2022/01/29 06:51:20;;;;;;;19.13;13.90;;;6.70;99.90;;;;;;6172029;23;20239;-82
2022/01/29 06:53:46;;;;;;;17.33;11.40;;;7.80;99.90;;;;;;6176170;23;20183;-82
2022/01/29 06:56:11;;;;;;;16.97;11.77;;;6.40;99.90;;;;;;6172246;23;20163;-82
2022/01/29 06:58:37;;;;;;;18.57;12.40;;;6.60;99.90;;;;;;6175017;23;20180;-82
2022/01/29 07:01:03;;;;;;;14.77;10.20;;;6.80;99.90;;;;;;6174249;23;20253;-81
2022/01/29 07:03:28;;;;;;;17.52;12.75;;;6.80;99.90;;;;;;6176176;23;20140;-80
2022/01/29 07:05:54;;;;;;;17.07;13.40;;;6.80;99.90;;;;;;6174291;23;20343;-81
2022/01/29 07:08:20;;;;;;;16.53;12.30;;;6.80;99.90;;;;;;6177296;23;20240;-81
2022/01/29 07:10:46;;;;;;;16.80;12.23;;;6.80;99.90;;;;;;6174490;23;20230;-82
2022/01/29 07:13:12;;;;;;;14.00;10.27;;;6.90;99.90;;;;;;6176615;23;20438;-82
2022/01/29 07:15:38;;;;;;;21.30;14.82;;;6.50;99.90;;;;;;6174521;23;20235;-82
2022/01/29 07:18:04;;;;;;;21.90;14.32;;;6.90;99.90;;;;;;6177056;23;20215;-82
2022/01/29 07:20:31;;;;;;;20.60;14.20;;;6.90;99.90;;;;;;6174175;23;20186;-81
2022/01/29 07:22:57;;;;;;;21.50;14.83;;;6.90;99.90;;;;;;6176190;23;20363;-82
2022/01/29 07:25:22;;;;;;;19.40;13.50;;;8.20;99.90;;;;;;6173894;23;20383;-81
2022/01/29 07:27:48;;;;;;;17.37;11.70;;;6.90;99.90;;;;;;6174964;23;20144;-81
2022/01/29 07:30:13;;;;;;;21.03;16.83;;;6.90;99.90;;;;;;6176237;23;20156;-81
2022/01/29 07:32:43;;;;;;;22.23;15.17;;;7.00;99.90;;;;;;6172666;23;20370;-82
2022/01/29 07:35:09;;;;;;;22.42;15.73;;;7.00;99.90;;;;;;6174663;23;20190;-81
2022/01/29 07:37:35;;;;;;;19.70;14.07;;;7.50;99.90;;;;;;6174267;23;20156;-81
2022/01/29 07:40:00;;;;;;;20.70;15.37;;;6.50;99.90;;;;;;6176414;23;20387;-82
2022/01/29 07:42:32;;;;;;;18.00;13.17;;;7.10;99.90;;;;;;6173266;23;20633;-83
2022/01/29 07:44:58;;;;;;;23.88;16.17;;;7.00;99.90;;;;;;6176377;23;20180;-81
2022/01/29 07:47:23;;;;;;;23.07;15.50;;;6.60;99.90;;;;;;6172300;23;20210;-82
2022/01/29 07:49:49;;;;;;;20.83;16.70;;;6.90;99.90;;;;;;6176357;23;20148;-82
2022/01/29 07:52:14;;;;;;;18.83;14.20;;;7.20;99.90;;;;;;6172815;23;20195;-82
2022/01/29 07:54:40;;;;;;;24.27;15.27;;;7.20;99.90;;;;;;6176255;23;20180;-82
2022/01/29 07:57:06;;;;;;;20.97;14.97;;;7.20;99.90;;;;;;6174362;23;20156;-82
2022/01/29 07:59:31;;;;;;;23.83;16.70;;;7.30;99.90;;;;;;6176749;23;20156;-83
2022/01/29 08:01:57;;;;;;;24.47;16.83;;;7.20;99.90;;;;;;6174283;23;20202;-81
2022/01/29 08:04:24;;;;;;;20.40;15.03;;;6.60;99.90;;;;;;6174403;23;20160;-81
2022/01/29 08:06:50;;;;;;;20.63;17.10;;;7.30;99.90;;;;;;6173135;23;20164;-81
2022/01/29 08:09:16;;;;;;;17.60;11.73;;;7.10;99.90;;;;;;6178002;23;20160;-82
2022/01/29 08:11:42;;;;;;;24.60;16.20;;;7.50;99.90;;;;;;6175420;23;20152;-83
2022/01/29 08:14:08;;;;;;;19.97;14.60;;;6.90;99.90;;;;;;6177669;23;20175;-82
2022/01/29 08:16:34;;;;;;;19.80;14.93;;;7.00;99.90;;;;;;6173961;23;20171;-81
2022/01/29 08:18:59;;;;;;;23.37;15.57;;;9.90;99.90;;;;;;6177800;23;20156;-82
2022/01/29 08:21:25;;;;;;;21.00;17.57;;;7.40;99.90;;;;;;6173575;23;20156;-80
2022/01/29 08:23:51;;;;;;;19.53;13.40;;;7.40;99.90;;;;;;6176114;23;20167;-81
2022/01/29 08:26:17;;;;;;;24.97;14.20;;;7.00;99.90;;;;;;6175628;23;20182;-81
2022/01/29 08:28:42;;;;;;;16.57;11.40;;;7.40;99.90;;;;;;6177687;23;20191;-80
2022/01/29 08:31:08;;;;;;;15.70;11.30;;;7.50;99.90;;;;;;6175824;23;20464;-80
2022/01/29 08:33:34;;;;;;;18.90;15.17;;;7.20;99.90;;;;;;6175829;23;20188;-80
2022/01/29 08:36:00;;;;;;;16.42;14.60;;;7.90;99.90;;;;;;6175298;23;20243;-82
2022/01/29 08:38:26;;;;;;;18.50;14.33;;;7.50;99.90;;;;;;6177887;23;20534;-80
2022/01/29 08:40:54;;;;;;;21.10;15.70;;;7.50;99.90;;;;;;6174728;23;20183;-80
2022/01/29 08:43:20;;;;;;;17.35;13.60;;;7.10;99.90;;;;;;6176168;23;20647;-81
2022/01/29 08:45:46;;;;;;;18.70;12.80;;;6.90;99.90;;;;;;6175117;23;20597;-81
2022/01/29 08:48:12;;;;;;;19.27;13.30;;;7.60;99.90;;;;;;6173030;23;20158;-82
2022/01/29 08:50:38;;;;;;;22.43;15.37;;;7.60;99.90;;;;;;6172812;23;20162;-81
2022/01/29 08:53:03;;;;;;;19.27;14.90;;;10.00;99.90;;;;;;6169669;23;20671;-80
2022/01/29 08:55:36;;;;;;;17.20;15.40;;;7.60;99.90;;;;;;6173622;23;20206;-80
2022/01/29 08:58:06;;;;;;;18.17;15.17;;;8.10;99.90;;;;;;6172088;23;20155;-80
2022/01/29 09:00:32;;;;;;;21.83;14.03;;;7.70;99.90;;;;;;6172055;23;20387;-81
2022/01/29 09:02:58;;;;;;;26.43;17.77;;;8.00;99.90;;;;;;6173323;23;20557;-82
2022/01/29 09:05:24;;;;;;;16.33;10.33;;;7.70;99.90;;;;;;6171085;23;20498;-80
2022/01/29 09:07:49;;;;;;;18.83;15.23;;;7.60;99.90;;;;;;6171608;23;20166;-80
2022/01/29 09:10:17;;;;;;;19.87;14.70;;;7.60;99.90;;;;;;6169324;23;20396;-82
2022/01/29 09:12:46;;;;;;;20.02;15.68;;;7.10;99.90;;;;;;6161675;22;20204;-92
2022/01/29 09:15:14;;;;;;;15.93;11.23;;;8.60;99.90;;;;;;6155704;23;20180;-92
2022/01/29 09:17:41;;;;;;;13.00;11.43;;;10.90;99.90;;;;;;6152825;23;20313;-91
2022/01/29 09:20:10;;;;;;;13.83;10.40;;;10.70;99.90;;;;;;6130455;23;20434;-92
2022/01/29 09:22:37;;;;;;;15.30;13.23;;;8.70;99.90;;;;;;6130233;23;20479;-93
2022/01/29 09:25:05;;;;;;;20.05;15.38;;;7.80;99.90;;;;;;6159623;23;20160;-91
2022/01/29 09:27:31;;;;;;;13.98;12.00;;;7.90;99.90;;;;;;6157017;23;20157;-92
2022/01/29 09:29:57;;;;;;;17.97;13.63;;;9.90;99.90;;;;;;6133085;23;20195;-92
2022/01/29 09:32:31;;;;;;;9.73;7.43;;;9.10;99.90;;;;;;6134443;23;20470;-91
2022/01/29 09:34:57;;;;;;;21.88;15.25;;;10.40;99.90;;;;;;6130144;23;20873;-93
2022/01/29 09:37:25;;;;;;;15.03;11.10;;;11.60;99.90;;;;;;6144576;23;20149;-91
2022/01/29 09:39:52;;;;;;;12.93;11.10;;;9.80;99.90;;;;;;6145753;23;20167;-94
2022/01/29 09:42:19;;;;;;;18.38;15.30;;;10.90;99.90;;;;;;6143807;23;20487;-92
2022/01/29 09:44:52;;;;;;;17.10;14.07;;;6.20;99.90;;;;;;6141914;23;20187;-92
2022/01/29 09:47:22;;;;;;;19.13;14.48;;;9.20;99.90;;;;;;6118801;23;20516;-93
2022/01/29 09:49:54;;;;;;;19.40;15.63;;;7.70;99.90;;;;;;6139644;23;20192;-93
2022/01/29 09:52:40;;;;;;;17.87;14.97;;;7.20;99.90;;;;;;6137302;23;20503;-92
2022/01/29 09:55:11;;;;;;;17.80;14.80;;;8.70;99.90;;;;;;6135870;23;20443;-93
2022/01/29 09:57:38;;;;;;;14.75;11.40;;;8.00;99.90;;;;;;6137663;23;20255;-92
2022/01/29 10:00:28;;;;;;;15.38;12.77;;;10.10;99.90;;;;;;6129301;23;20171;-93
2022/01/29 10:03:16;;;;;;;15.15;13.55;;;8.20;99.90;;;;;;6129956;23;20144;-92
2022/01/29 10:06:21;;;;;;;14.32;12.80;;;7.60;99.90;;;;;;6167333;23;20144;-91
2022/01/29 10:08:50;;;;;;;19.48;13.60;;;8.60;99.90;;;;;;6144321;23;20148;-91
2022/01/29 10:11:34;;;;;;;20.85;14.45;;;10.30;99.90;;;;;;6169420;23;20196;-89
2022/01/29 10:14:45;;;;;;;12.48;10.27;;;11.60;99.90;;;;;;6168247;23;20250;-91
2022/01/29 10:17:06;;;;;;;9.80;8.80;;;8.10;99.90;;;;;;6161952;23;20219;-87
2022/01/29 10:19:32;;;;;;;14.38;12.88;;;7.90;99.90;;;;;;6112996;23;20240;-91
2022/01/29 10:22:16;;;;;;;11.97;10.90;;;7.70;99.90;;;;;;6137832;23;20161;-91
2022/01/29 10:25:06;;;;;;;11.40;9.82;;;10.80;99.90;;;;;;6123608;23;20508;-93
2022/01/29 10:28:37;;;;;;;16.60;12.55;;;9.00;99.90;;;;;;6134987;23;20161;-90
2022/01/29 10:31:08;;;;;;;11.35;10.23;;;10.60;99.90;;;;;;6113518;23;20153;-90
2022/01/29 10:33:47;;;;;;;13.40;12.00;;;8.10;99.90;;;;;;6141206;23;20188;-92
2022/01/29 10:36:28;;;;;;;12.90;11.80;;;11.20;99.90;;;;;;6131983;23;20653;-96
2022/01/29 10:39:02;;;;;;;12.98;8.70;;;10.00;99.90;;;;;;6136515;23;20149;-92
2022/01/29 10:41:31;;;;;;;11.25;9.35;;;8.60;99.90;;;;;;6132353;23;20202;-93
2022/01/29 10:44:15;;;;;;;13.47;12.27;;;8.60;99.90;;;;;;6132678;23;20165;-91
2022/01/29 10:46:54;;;;;;;14.07;10.40;;;8.60;99.90;;;;;;6160726;23;20369;-91
2022/01/29 10:49:30;;;;;;;14.75;11.38;;;9.20;99.90;;;;;;6135621;23;20376;-94
2022/01/29 10:52:07;;;;;;;11.07;9.88;;;8.60;99.90;;;;;;6129919;23;20171;-95
2022/01/29 10:54:36;;;;;;;13.75;12.18;;;8.60;99.90;;;;;;6134477;23;20270;-88
2022/01/29 10:57:10;;;;;;;10.52;8.95;;;7.30;99.90;;;;;;6135875;23;20187;-91
2022/01/29 10:59:51;;;;;;;7.70;6.90;;;8.60;99.90;;;;;;6135700;23;20144;-91
2022/01/29 11:02:19;;;;;;;12.85;11.48;;;9.40;99.90;;;;;;6160058;23;20129;-90
2022/01/29 11:04:47;;;;;;;13.13;11.82;;;10.50;99.90;;;;;;6126233;23;20160;-88
2022/01/29 11:07:23;;;;;;;13.40;12.13;;;10.90;99.90;;;;;;6151271;23;20617;-90
2022/01/29 11:09:51;;;;;;;6.33;5.43;;;10.80;99.90;;;;;;6125609;23;20256;-89
2022/01/29 11:12:22;;;;;;;13.30;11.90;;;8.50;99.90;;;;;;6149173;23;20424;-88
2022/01/29 11:14:59;;;;;;;16.88;12.00;;;9.30;99.90;;;;;;6133005;23;20436;-93
2022/01/29 11:17:26;;;;;;;8.38;7.50;;;8.10;99.90;;;;;;6101791;23;20149;-91
2022/01/29 11:19:52;;;;;;;14.75;8.43;;;10.00;99.90;;;;;;6095866;23;20227;-89
2022/01/29 11:22:30;;;;;;;11.03;10.03;;;9.90;99.90;;;;;;6116061;23;20484;-88
2022/01/29 11:25:00;;;;;;;9.93;8.90;;;7.60;99.90;;;;;;6121021;23;20157;-90
2022/01/29 11:27:28;;;;;;;11.50;10.30;;;8.80;99.90;;;;;;6093989;23;20394;-88
2022/01/29 11:30:07;;;;;;;10.07;9.18;;;7.90;99.90;;;;;;6096675;23;20168;-89
2022/01/29 11:32:42;;;;;;;10.63;9.10;;;9.40;99.90;;;;;;6095141;23;20149;-88
2022/01/29 11:35:20;;;;;;;9.50;8.07;;;8.00;99.90;;;;;;6120216;23;20420;-88
2022/01/29 11:37:49;;;;;;;7.77;7.20;;;8.70;99.90;;;;;;6127595;23;20433;-89
2022/01/29 11:40:17;;;;;;;10.93;9.83;;;8.80;99.90;;;;;;6094572;23;20768;-89
2022/01/29 11:43:09;;;;;;;11.50;10.00;;;8.60;99.90;;;;;;6095707;23;20817;-89
2022/01/29 11:45:46;;;;;;;9.90;8.90;;;8.70;99.90;;;;;;6121189;23;20428;-89
2022/01/29 11:48:36;;;;;;;10.43;9.05;;;8.80;99.90;;;;;;6097138;23;20393;-88
2022/01/29 11:51:05;;;;;;;11.63;10.43;;;8.70;99.90;;;;;;6121929;23;20202;-89
2022/01/29 11:53:45;;;;;;;8.23;6.57;;;8.70;99.90;;;;;;6126184;23;20464;-90
2022/01/29 11:56:36;;;;;;;7.53;7.03;;;10.60;99.90;;;;;;6124025;23;20385;-89
2022/01/29 11:59:20;;;;;;;7.07;6.43;;;8.80;99.90;;;;;;6086401;23;20216;-89
2022/01/29 12:01:52;;;;;;;5.60;5.20;;;9.70;99.90;;;;;;6137148;23;20449;-89
2022/01/29 12:04:22;;;;;;;5.63;5.13;;;8.40;99.90;;;;;;6138676;23;20404;-88
2022/01/29 12:07:03;;;;;;;6.23;5.67;;;9.30;99.90;;;;;;6107107;23;20393;-90
2022/01/29 12:10:08;;;;;;;4.33;4.03;;;10.50;99.90;;;;;;6118913;23;20393;-93
2022/01/29 12:12:39;;;;;;;4.33;4.13;;;11.40;99.90;;;;;;6109648;23;20767;-80
2022/01/29 12:15:11;;;;;;;4.47;4.17;;;11.00;99.90;;;;;;6118970;23;20464;-80
2022/01/29 12:17:57;;;;;;;3.70;3.60;;;10.20;99.90;;;;;;6116010;23;20373;-80
2022/01/29 12:20:25;;;;;;;4.97;4.70;;;9.30;99.90;;;;;;6092305;23;20400;-80
2022/01/29 12:22:57;;;;;;;3.10;3.00;;;9.00;99.90;;;;;;6090197;23;20472;-80
2022/01/29 12:25:26;;;;;;;3.50;3.50;;;8.50;99.90;;;;;;6092305;23;20452;-79
2022/01/29 12:27:55;;;;;;;3.20;3.10;;;9.30;99.90;;;;;;6090184;23;20968;-80
2022/01/29 12:30:25;;;;;;;4.15;4.00;;;9.30;99.90;;;;;;6093160;23;20165;-80
2022/01/29 12:33:04;;;;;;;3.27;3.17;;;9.30;99.90;;;;;;6090148;23;20204;-82
2022/01/29 12:35:37;;;;;;;3.67;3.57;;;9.40;99.90;;;;;;6092482;23;20440;-81
2022/01/29 12:38:05;;;;;;;3.20;3.10;;;8.80;99.90;;;;;;6090529;23;20513;-81
2022/01/29 12:40:37;;;;;;;3.15;3.00;;;9.40;99.90;;;;;;6092270;23;20411;-83
2022/01/29 12:43:10;;;;;;;4.00;3.38;;;9.40;99.90;;;;;;6090984;23;20489;-81
2022/01/29 12:45:37;;;;;;;3.55;3.45;;;9.60;99.90;;;;;;6119113;23;20141;-81
2022/01/29 12:48:10;;;;;;;2.93;2.73;;;9.40;99.90;;;;;;6093107;23;20157;-81
2022/01/29 12:50:42;;;;;;;3.30;3.25;;;9.50;99.90;;;;;;6091739;23;20575;-82
2022/01/29 12:53:19;;;;;;;3.60;3.40;;;9.60;99.90;;;;;;6090306;23;20451;-81
2022/01/29 12:56:16;;;;;;;3.20;3.13;;;9.90;99.90;;;;;;6091988;23;20484;-80
2022/01/29 12:58:42;;;;;;;2.80;2.70;;;9.60;99.90;;;;;;6117632;23;20349;-82